Flight Track Log - Related Links

Times and Time Zones

All times are in EDT time to prevent confusion due to time zone crossing. See the N470BC flight status page for this flight to view local times or setup timezone preferences in your user account.

Time Position Orientation Groundspeed Altitude Reporting Facility
EDT Latitude Longitude Course Direction KTS MPH feet Rate Location/Type
Tue 02:28:38 PM 44.0000 -88.5333 340° North 104 120 1,500  Level KMKE
Tue 02:29:02 PM 44.0167 -88.5500 324° Northwest 130 150 1,900 923 Climbing KMKE
Tue 02:30:09 PM 44.0389 -88.5928 306° West 127 146 2,900 744 Climbing Chicago Center
Tue 02:31:11 PM 44.0606 -88.6286 310° West 127 146 3,500 576 Climbing Chicago Center
Tue 02:32:14 PM 44.0853 -88.6636 315° West 127 146 4,100 576 Climbing Chicago Center
Tue 02:33:16 PM 44.1114 -88.6997 315° West 127 146 4,700 532 Climbing Chicago Center
Tue 02:34:00 PM 44.1790 -88.7895 340° North  Level FlightAware Approximate
Tue 02:34:18 PM 44.1378 -88.7361 315° West 128 147 5,200  Level Chicago Center
Tue 02:35:20 PM 44.1664 -88.7717 318° Northwest 132 152 5,600 435 Climbing Chicago Center
Tue 02:36:22 PM 44.2008 -88.8122 320° Northwest 134 154 6,100 242 Climbing Chicago Center
Tue 02:37:24 PM 44.2311 -88.8514 317° Northwest 138 159 6,100 97 Level Chicago Center
Tue 02:38:26 PM 44.2661 -88.8928 320° Northwest 152 175 6,300 339 Climbing Chicago Center
Tue 02:39:28 PM 44.2969 -88.9297 319° Northwest 153 176 6,800 336 Climbing Chicago Center
Tue 02:40:31 PM 44.3264 -88.9664 318° Northwest 147 169 7,000 144 Climbing Chicago Center
Tue 02:41:33 PM 44.3661 -89.0147 319° Northwest 150 173 7,100  Climbing Chicago Center
Tue 02:42:35 PM 44.4003 -89.0556 320° Northwest 156 180 7,000 -48 Descending Chicago Center
Tue 02:43:37 PM 44.4342 -89.0983 318° Northwest 159 183 7,000 97 Level Chicago Center
Tue 02:44:39 PM 44.4667 -89.1381 319° Northwest 159 183 7,200 290 Climbing Chicago Center
Tue 02:45:41 PM 44.4969 -89.1742 320° Northwest 154 177 7,600 339 Climbing Chicago Center
Tue 02:46:43 PM 44.5253 -89.2083 319° Northwest 144 166 7,900 194 Climbing Chicago Center
Tue 02:47:45 PM 44.5606 -89.2514 319° Northwest 141 162 8,000 43 Climbing Chicago Center
Tue 02:49:01 PM 44.6036 -89.3033 319° Northwest 152 175 8,000  Level Minneapolis Center
Tue 02:50:03 PM 44.6369 -89.3458 318° Northwest 152 175 8,000  Level Minneapolis Center
Tue 02:51:05 PM 44.6714 -89.3869 320° Northwest 153 176 8,000  Level Minneapolis Center
Tue 02:52:07 PM 44.7025 -89.4250 319° Northwest 153 176 8,000  Level Minneapolis Center
Tue 02:53:09 PM 44.7408 -89.4592 328° Northwest 154 177 8,000  Level Minneapolis Center
Tue 02:54:11 PM 44.7728 -89.5008 317° Northwest 156 180 8,000  Level Minneapolis Center
Tue 02:55:13 PM 44.7992 -89.5472 309° West 150 173 8,000  Level Minneapolis Center
Tue 02:56:16 PM 44.8158 -89.6075 291° West 156 180 8,000 -96 Level Minneapolis Center
Tue 02:57:18 PM 44.8597 -89.6289 341° North 159 183 7,800 -48 Descending Minneapolis Center
Tue 02:58:20 PM 44.8992 -89.6581 332° Northwest 159 183 7,900 97 Climbing Minneapolis Center
Tue 02:59:22 PM 44.9203 -89.7150 298° West 158 182 8,000 48 Climbing Minneapolis Center
Tue 03:00:24 PM 44.9281 -89.7789 280° West 158 182 8,000 48 Level Minneapolis Center
Tue 03:01:26 PM 44.9428 -89.8336 291° West 157 181 8,100  Climbing Minneapolis Center
Tue 03:02:28 PM 44.9733 -89.8811 312° West 156 180 8,000 -97 Descending Minneapolis Center
Tue 03:03:30 PM 45.0144 -89.9086 335° Northwest 157 181 7,900 -48 Descending Minneapolis Center
Tue 03:04:32 PM 45.0528 -89.9475 324° Northwest 159 183 7,900  Level Minneapolis Center
Tue 03:05:34 PM 45.0881 -89.9894 320° Northwest 159 183 7,900  Level Minneapolis Center
Tue 03:06:37 PM 45.1258 -90.0233 328° Northwest 160 184 7,900 48 Level Minneapolis Center
Tue 03:07:39 PM 45.1689 -90.0331 351° North 159 183 8,000  Climbing Minneapolis Center
Tue 03:08:41 PM 45.2033 -90.0664 326° Northwest 158 182 7,900 -48 Descending Minneapolis Center
Tue 03:09:43 PM 45.2400 -90.1036 324° Northwest 158 182 7,900  Level Minneapolis Center
Tue 03:10:45 PM 45.2769 -90.1392 326° Northwest 158 182 7,900  Level Minneapolis Center
Tue 03:11:47 PM 45.3169 -90.1897 318° Northwest 158 182 7,900  Level Minneapolis Center
Tue 03:12:49 PM 45.3286 -90.2431 287° West 162 186 7,900  Level Minneapolis Center
Tue 03:13:51 PM 45.3547 -90.2925 307° West 170 196 7,900  Level Minneapolis Center
Tue 03:14:53 PM 45.3881 -90.3364 317° Northwest 164 189 7,900  Level Minneapolis Center
Tue 03:15:56 PM 45.4139 -90.3858 307° West 162 186 7,900  Level Minneapolis Center
Tue 03:16:58 PM 45.4422 -90.4336 310° West 160 184 7,900  Level Minneapolis Center
Tue 03:18:00 PM 45.4747 -90.4756 318° Northwest 159 183 7,900 48 Level Minneapolis Center
Tue 03:19:02 PM 45.5122 -90.5311 314° West 159 183 8,000 48 Climbing Minneapolis Center
Tue 03:20:04 PM 45.5442 -90.5803 313° West 163 188 8,000  Level Minneapolis Center
Tue 03:21:06 PM 45.5711 -90.6317 307° West 164 189 8,000  Level Minneapolis Center
Tue 03:22:08 PM 45.6114 -90.6675 328° Northwest 171 197 8,000  Level Minneapolis Center
Tue 03:23:10 PM 45.6492 -90.7047 325° Northwest 171 197 8,000  Level Minneapolis Center
Tue 03:24:12 PM 45.6861 -90.7433 324° Northwest 166 191 8,000  Level Minneapolis Center
Tue 03:25:14 PM 45.7311 -90.7889 325° Northwest 166 191 8,000  Level Minneapolis Center
Tue 03:26:16 PM 45.7689 -90.8261 326° Northwest 166 191 8,000  Level Minneapolis Center
Tue 03:27:18 PM 45.8042 -90.8614 325° Northwest 161 185 8,000  Level Minneapolis Center
Tue 03:28:20 PM 45.8417 -90.8961 327° Northwest 161 185 8,000  Level Minneapolis Center
Tue 03:29:22 PM 45.8794 -90.9328 326° Northwest 161 185 8,000  Level Minneapolis Center
Tue 03:30:24 PM 45.9128 -90.9675 324° Northwest 159 183 8,000 49 Level Minneapolis Center
Tue 03:31:25 PM 45.9467 -91.0039 323° Northwest 155 178 8,100 49 Climbing Minneapolis Center
Tue 03:32:27 PM 45.9933 -91.0572 322° Northwest 166 191 8,100  Level Minneapolis Center
Tue 03:33:29 PM 46.0250 -91.1014 316° Northwest 166 191 8,100 -48 Level Minneapolis Center
Tue 03:34:31 PM 46.0572 -91.1436 318° Northwest 160 184 8,000 -48 Descending Minneapolis Center
Tue 03:35:33 PM 46.0897 -91.1894 316° Northwest 160 184 8,000  Level Minneapolis Center
Tue 03:36:35 PM 46.1267 -91.2333 321° Northwest 163 188 8,000  Level Minneapolis Center
Tue 03:37:37 PM 46.1589 -91.2772 317° Northwest 164 189 8,000  Level Minneapolis Center
Tue 03:38:39 PM 46.1897 -91.3222 315° West 163 188 8,000  Level Minneapolis Center
Tue 03:39:41 PM 46.2303 -91.3750 318° Northwest 163 188 8,000  Level Minneapolis Center
Tue 03:40:43 PM 46.2639 -91.4200 317° Northwest 163 188 8,000  Level Minneapolis Center
Tue 03:41:45 PM 46.2981 -91.4647 318° Northwest 163 188 8,000  Level Minneapolis Center
Tue 03:42:47 PM 46.3314 -91.5092 317° Northwest 163 188 8,000  Level Minneapolis Center
Tue 03:43:49 PM 46.3667 -91.5531 319° Northwest 163 188 8,000  Level Minneapolis Center
Tue 03:44:51 PM 46.4031 -91.6000 318° Northwest 165 190 8,000  Level Minneapolis Center
Tue 03:45:53 PM 46.4356 -91.6453 316° Northwest 165 190 8,000  Level Minneapolis Center
Tue 03:46:55 PM 46.4689 -91.6917 316° Northwest 165 190 8,000  Level Minneapolis Center
Tue 03:47:57 PM 46.5003 -91.7406 313° West 165 190 8,000 -387 Level Minneapolis Center
Tue 03:48:59 PM 46.5361 -91.8106 307° West 171 197 7,200 -629 Descending Minneapolis Center
Tue 03:50:01 PM 46.5678 -91.8714 307° West 180 207 6,700 -480 Descending Minneapolis Center
Tue 03:51:04 PM 46.5981 -91.9303 307° West 182 209 6,200 -480 Descending Minneapolis Center
Tue 03:52:06 PM 46.6300 -91.9903 308° West 182 209 5,700 -484 Descending Minneapolis Center
Tue 03:53:08 PM 46.6597 -92.0506 306° West 184 212 5,200 -532 Descending Minneapolis Center
Tue 03:54:10 PM 46.6978 -92.1222 308° West 184 212 4,600 -532 Descending Minneapolis Center
Tue 03:55:12 PM 46.7067 -92.1961 280° West 188 216 4,100 -290 Descending Minneapolis Center
Tue 03:56:14 PM 46.7028 -92.2750 266° West 194 223 4,000 -48 Descending Minneapolis Center
Tue 03:57:16 PM 46.7006 -92.3464 267° West 190 219 4,000  Level Minneapolis Center
Tue 03:58:18 PM 46.6972 -92.4169 266° West 182 209 4,000  Level Minneapolis Center
Tue 03:59:21 PM 46.6939 -92.4858 266° West 178 205 4,000  Level Minneapolis Center
Tue 04:00:23 PM 46.7103 -92.5503 290° West 175 201 4,000  Level Minneapolis Center
Tue 04:01:25 PM 46.7550 -92.5547 356° North 170 196 4,000 -194 Level Minneapolis Center
Tue 04:02:27 PM 46.8011 -92.5617 354° North 166 191 3,600 -339 Descending Minneapolis Center
Tue 04:03:29 PM 46.8317 -92.5125 48° Northeast 172 198 3,300 -145 Descending Minneapolis Center
Tue 04:04:31 PM 46.8514 -92.4586 62° Northeast 162 186 3,300  Level Minneapolis Center
Tue 04:05:33 PM 46.8469 -92.4036 97° East 146 168 3,300 -48 Level Minneapolis Center
Tue 04:06:35 PM 46.8461 -92.3458 91° East 131 151 3,200 -290 Descending Minneapolis Center
Tue 04:07:37 PM 46.8442 -92.3128 95° East 107 123 2,700 -480 Descending Minneapolis Center
Tue 04:08:40 PM 46.8433 -92.2789 92° East 94 108 2,200 -432 Descending Minneapolis Center
Tue 04:09:42 PM 46.8419 -92.2428 93° East 90 104 1,800 -387 Descending Minneapolis Center

Login

Don't have an account? Register now (free) for customized features, flight alerts, and more!